La rose des vents
Donnes mto: Semaine 01/02/16 - 07/02/16 (S 5)
Date Horaire Temp. E. Hum. E. P.atmo. Pluie Vent 1mn Direction Ensoleilleme Ev.Tr. Solaire P. de rose Temp au vent Rafales
01/02/2016 00:00 10,4 C 96 % 1018,5 hPa 0,0 l/m 0,5 km/h (0 Bft) SE 0,00 h 0,000 mm 0 W/m 9,7 C 10,4 C 1,4 km/h (1 Bft)
01/02/2016 01:00 10,5 C 96 % 1018,4 hPa 0,0 l/m 0,0 km/h (0 Bft) N 0,00 h 0,000 mm 0 W/m 9,9 C 10,5 C 0,3 km/h (0 Bft)
01/02/2016 02:00 10,5 C 96 % 1018,6 hPa 0,2 l/m 0,2 km/h (0 Bft) N-NO 0,00 h 0,000 mm 0 W/m 9,9 C 10,5 C 1,7 km/h (1 Bft)
01/02/2016 03:00 10,2 C 96 % 1018,5 hPa 0,0 l/m 0,2 km/h (0 Bft) NO 0,00 h 0,000 mm 0 W/m 9,6 C 10,2 C 1,1 km/h (1 Bft)
01/02/2016 04:00 9,8 C 96 % 1018,5 hPa 0,0 l/m 0,0 km/h (0 Bft) N 0,00 h 0,000 mm 0 W/m 9,2 C 9,8 C 0,6 km/h (0 Bft)
01/02/2016 05:00 10,0 C 97 % 1019,1 hPa 0,0 l/m 0,0 km/h (0 Bft) NO 0,00 h 0,000 mm 0 W/m 9,4 C 10,0 C 0,4 km/h (0 Bft)
01/02/2016 06:00 9,7 C 96 % 1019,6 hPa 0,0 l/m 0,3 km/h (0 Bft) NO 0,00 h 0,000 mm 0 W/m 9,1 C 9,7 C 1,9 km/h (1 Bft)
01/02/2016 07:00 10,0 C 96 % 1020,4 hPa 0,0 l/m 0,0 km/h (0 Bft) O-NO 0,00 h 0,000 mm 6 W/m 9,3 C 10,0 C 0,8 km/h (0 Bft)
01/02/2016 08:00 10,2 C 94 % 1021,3 hPa 0,0 l/m 0,0 km/h (0 Bft) O-NO 0,18 h 0,000 mm 55 W/m 9,3 C 10,2 C 0,9 km/h (0 Bft)
01/02/2016 09:00 11,5 C 93 % 1022,1 hPa 0,0 l/m 0,0 km/h (0 Bft) N 0,43 h 0,025 mm 153 W/m 10,4 C 11,5 C 0,1 km/h (0 Bft)
01/02/2016 10:00 14,2 C 82 % 1022,6 hPa 0,0 l/m 0,7 km/h (0 Bft) O-NO 0,93 h 0,076 mm 314 W/m 11,2 C 14,2 C 2,9 km/h (1 Bft)
01/02/2016 11:00 16,6 C 73 % 1023,0 hPa 0,0 l/m 2,9 km/h (1 Bft) SO 1,00 h 0,152 mm 442 W/m 11,6 C 16,6 C 5,8 km/h (2 Bft)
01/02/2016 12:00 18,0 C 70 % 1023,0 hPa 0,0 l/m 3,8 km/h (1 Bft) S-SO 0,97 h 0,254 mm 481 W/m 12,5 C 18,0 C 7,1 km/h (2 Bft)
01/02/2016 13:00 17,8 C 69 % 1023,2 hPa 0,0 l/m 3,5 km/h (1 Bft) E-SE 0,98 h 0,279 mm 479 W/m 12,1 C 17,8 C 7,9 km/h (2 Bft)
01/02/2016 14:00 15,9 C 79 % 1023,5 hPa 0,0 l/m 2,0 km/h (1 Bft) E-SE 0,48 h 0,279 mm 250 W/m 12,4 C 15,9 C 4,4 km/h (1 Bft)
01/02/2016 15:00 14,7 C 85 % 1023,9 hPa 0,0 l/m 0,5 km/h (0 Bft) E-SE 0,00 h 0,127 mm 113 W/m 12,2 C 14,7 C 2,4 km/h (1 Bft)
01/02/2016 16:00 14,3 C 88 % 1024,4 hPa 0,0 l/m 1,4 km/h (1 Bft) S 0,00 h 0,051 mm 51 W/m 12,4 C 14,3 C 3,3 km/h (1 Bft)
01/02/2016 17:00 13,5 C 91 % 1024,7 hPa 0,0 l/m 0,3 km/h (0 Bft) E-SE 0,00 h 0,025 mm 10 W/m 12,1 C 13,5 C 1,5 km/h (1 Bft)
01/02/2016 18:00 13,2 C 93 % 1025,1 hPa 0,0 l/m 0,1 km/h (0 Bft) E 0,00 h 0,000 mm 0 W/m 12,1 C 13,2 C 1,1 km/h (1 Bft)
01/02/2016 19:00 13,0 C 94 % 1025,8 hPa 0,0 l/m 0,0 km/h (0 Bft) E-SE 0,00 h 0,000 mm 0 W/m 12,0 C 13,0 C 0,5 km/h (0 Bft)
01/02/2016 20:00 12,8 C 94 % 1026,2 hPa 0,0 l/m 0,0 km/h (0 Bft) NE 0,00 h 0,000 mm 0 W/m 11,9 C 12,8 C 0,4 km/h (0 Bft)
01/02/2016 21:00 12,7 C 93 % 1026,5 hPa 0,0 l/m 0,1 km/h (0 Bft) N 0,00 h 0,000 mm 0 W/m 11,7 C 12,7 C 0,2 km/h (0 Bft)
01/02/2016 22:00 12,3 C 93 % 1026,9 hPa 0,0 l/m 0,0 km/h (0 Bft) N 0,00 h 0,000 mm 0 W/m 11,2 C 12,3 C 0,4 km/h (0 Bft)
01/02/2016 23:00 11,9 C 93 % 1026,6 hPa 0,0 l/m 0,0 km/h (0 Bft) N 0,00 h 0,000 mm 0 W/m 10,9 C 11,9 C 0,2 km/h (0 Bft)
02/02/2016 00:00 11,5 C 93 % 1026,4 hPa 0,0 l/m 0,0 km/h (0 Bft) N 0,00 h 0,000 mm 0 W/m 10,4 C 11,5 C 0,3 km/h (0 Bft)
02/02/2016 01:00 11,2 C 93 % 1026,3 hPa 0,0 l/m 0,0 km/h (0 Bft) N 0,00 h 0,000 mm 0 W/m 10,1 C 11,2 C 0,4 km/h (0 Bft)
02/02/2016 02:00 11,0 C 93 % 1026,3 hPa 0,0 l/m 0,0 km/h (0 Bft) N 0,00 h 0,000 mm 0 W/m 9,9 C 11,0 C 0,0 km/h (0 Bft)
02/02/2016 03:00 11,1 C 92 % 1026,0 hPa 0,0 l/m 0,0 km/h (0 Bft) N 0,00 h 0,000 mm 0 W/m 9,9 C 11,1 C 0,3 km/h (0 Bft)
02/02/2016 04:00 11,3 C 92 % 1025,4 hPa 0,0 l/m 0,0 km/h (0 Bft) N 0,00 h 0,000 mm 0 W/m 10,1 C 11,3 C 0,1 km/h (0 Bft)
02/02/2016 05:00 11,1 C 89 % 1025,1 hPa 0,0 l/m 0,1 km/h (0 Bft) N-NO 0,00 h 0,000 mm 0 W/m 9,3 C 11,1 C 0,8 km/h (0 Bft)
02/02/2016 06:00 11,3 C 86 % 1025,2 hPa 0,0 l/m 0,6 km/h (0 Bft) NO 0,00 h 0,000 mm 0 W/m 9,0 C 11,3 C 2,5 km/h (1 Bft)
02/02/2016 07:00 11,4 C 85 % 1025,2 hPa 0,0 l/m 1,2 km/h (1 Bft) NO 0,00 h 0,000 mm 6 W/m 9,0 C 11,4 C 3,5 km/h (1 Bft)
02/02/2016 08:00 11,4 C 85 % 1025,3 hPa 0,0 l/m 0,2 km/h (0 Bft) E-NE 0,00 h 0,000 mm 14 W/m 9,0 C 11,4 C 0,7 km/h (0 Bft)
02/02/2016 09:00 11,5 C 88 % 1025,8 hPa 0,0 l/m 0,0 km/h (0 Bft) N 0,00 h 0,000 mm 45 W/m 9,5 C 11,5 C 0,1 km/h (0 Bft)
02/02/2016 10:00 12,2 C 88 % 1025,9 hPa 0,0 l/m 0,0 km/h (0 Bft) N 0,00 h 0,025 mm 99 W/m 10,2 C 12,2 C 0,3 km/h (0 Bft)
02/02/2016 11:00 12,8 C 86 % 1025,7 hPa 0,0 l/m 0,1 km/h (0 Bft) E-NE 0,00 h 0,051 mm 116 W/m 10,6 C 12,8 C 1,3 km/h (1 Bft)
02/02/2016 12:00 12,9 C 88 % 1025,4 hPa 0,0 l/m 0,1 km/h (0 Bft) E-NE 0,00 h 0,051 mm 127 W/m 10,9 C 12,9 C 0,9 km/h (0 Bft)
02/02/2016 13:00 13,2 C 88 % 1024,7 hPa 0,0 l/m 0,0 km/h (0 Bft) N 0,00 h 0,076 mm 119 W/m 11,3 C 13,2 C 0,1 km/h (0 Bft)
02/02/2016 14:00 13,7 C 86 % 1023,7 hPa 0,0 l/m 0,2 km/h (0 Bft) E-NE 0,00 h 0,051 mm 156 W/m 11,4 C 13,7 C 1,0 km/h (0 Bft)
02/02/2016 15:00 13,8 C 85 % 1023,3 hPa 0,0 l/m 0,1 km/h (0 Bft) E-SE 0,00 h 0,076 mm 81 W/m 11,3 C 13,8 C 0,9 km/h (0 Bft)
02/02/2016 16:00 13,0 C 88 % 1023,2 hPa 0,0 l/m 0,4 km/h (0 Bft) S 0,00 h 0,051 mm 21 W/m 11,1 C 13,0 C 1,4 km/h (1 Bft)
02/02/2016 17:00 12,4 C 90 % 1022,9 hPa 0,0 l/m 0,0 km/h (0 Bft) S 0,00 h 0,025 mm 7 W/m 10,8 C 12,4 C 0,4 km/h (0 Bft)
02/02/2016 18:00 12,1 C 92 % 1023,0 hPa 0,0 l/m 0,0 km/h (0 Bft) N 0,00 h 0,000 mm 0 W/m 10,9 C 12,1 C 0,0 km/h (0 Bft)
02/02/2016 19:00 12,0 C 93 % 1023,0 hPa 0,0 l/m 0,0 km/h (0 Bft) N 0,00 h 0,000 mm 0 W/m 10,9 C 12,0 C 0,0 km/h (0 Bft)
02/02/2016 20:00 11,8 C 94 % 1023,0 hPa 0,0 l/m 0,0 km/h (0 Bft) N 0,00 h 0,000 mm 0 W/m 10,9 C 11,8 C 0,0 km/h (0 Bft)
02/02/2016 21:00 11,6 C 95 % 1022,7 hPa 0,0 l/m 0,0 km/h (0 Bft) N 0,00 h 0,000 mm 0 W/m 10,8 C 11,6 C 0,0 km/h (0 Bft)
02/02/2016 22:00 11,4 C 95 % 1022,2 hPa 0,0 l/m 0,0 km/h (0 Bft) N 0,00 h 0,000 mm 0 W/m 10,7 C 11,4 C 0,1 km/h (0 Bft)
02/02/2016 23:00 11,2 C 96 % 1021,7 hPa 0,0 l/m 0,0 km/h (0 Bft) N 0,00 h 0,000 mm 0 W/m 10,5 C 11,2 C 0,0 km/h (0 Bft)
03/02/2016 00:00 10,7 C 96 % 1021,0 hPa 0,0 l/m 0,0 km/h (0 Bft) N 0,00 h 0,000 mm 0 W/m 10,1 C 10,7 C 0,0 km/h (0 Bft)
03/02/2016 01:00 10,4 C 96 % 1020,4 hPa 0,0 l/m 0,0 km/h (0 Bft) N 0,00 h 0,000 mm 0 W/m 9,7 C 10,4 C 0,1 km/h (0 Bft)
03/02/2016 02:00 9,8 C 96 % 1019,8 hPa 0,0 l/m 0,0 km/h (0 Bft) N 0,00 h 0,000 mm 0 W/m 9,2 C 9,8 C 0,0 km/h (0 Bft)
03/02/2016 03:00 9,2 C 95 % 1019,1 hPa 0,0 l/m 0,0 km/h (0 Bft) N-NE 0,00 h 0,000 mm 0 W/m 8,5 C 9,2 C 0,3 km/h (0 Bft)
03/02/2016 04:00 8,7 C 94 % 1018,3 hPa 0,2 l/m 0,0 km/h (0 Bft) N 0,00 h 0,000 mm 0 W/m 7,8 C 8,7 C 0,0 km/h (0 Bft)
03/02/2016 05:00 8,7 C 94 % 1017,8 hPa 0,0 l/m 0,0 km/h (0 Bft) NE 0,00 h 0,000 mm 0 W/m 7,7 C 8,7 C 0,2 km/h (0 Bft)
03/02/2016 06:00 8,8 C 92 % 1017,4 hPa 0,0 l/m 0,0 km/h (0 Bft) N-NO 0,00 h 0,000 mm 0 W/m 7,6 C 8,8 C 0,0 km/h (0 Bft)
03/02/2016 07:00 8,6 C 91 % 1017,4 hPa 0,0 l/m 0,0 km/h (0 Bft) N 0,05 h 0,000 mm 8 W/m 7,3 C 8,6 C 0,3 km/h (0 Bft)
03/02/2016 08:00 8,7 C 91 % 1017,1 hPa 0,0 l/m 0,1 km/h (0 Bft) O-NO 0,00 h 0,000 mm 28 W/m 7,3 C 8,7 C 0,9 km/h (0 Bft)
03/02/2016 09:00 9,6 C 92 % 1016,7 hPa 0,0 l/m 1,5 km/h (1 Bft) SO 0,00 h 0,025 mm 87 W/m 8,3 C 9,6 C 3,5 km/h (1 Bft)
03/02/2016 10:00 10,5 C 90 % 1016,2 hPa 0,0 l/m 2,3 km/h (1 Bft) SO 0,00 h 0,051 mm 168 W/m 8,9 C 10,5 C 5,2 km/h (1 Bft)
03/02/2016 11:00 11,8 C 87 % 1015,3 hPa 0,0 l/m 1,2 km/h (1 Bft) SO 0,67 h 0,076 mm 277 W/m 9,7 C 11,8 C 3,3 km/h (1 Bft)
03/02/2016 12:00 14,3 C 79 % 1013,7 hPa 0,0 l/m 2,1 km/h (1 Bft) S 0,85 h 0,127 mm 374 W/m 10,8 C 14,3 C 4,4 km/h (1 Bft)
03/02/2016 13:00 17,9 C 42 % 1011,6 hPa 0,0 l/m 10,9 km/h (2 Bft) O-NO 1,00 h 0,203 mm 482 W/m 4,5 C 17,9 C 21,2 km/h (4 Bft)
03/02/2016 14:00 18,4 C 32 % 1011,1 hPa 0,0 l/m 12,6 km/h (3 Bft) O-NO 1,00 h 0,356 mm 411 W/m 1,4 C 18,4 C 24,8 km/h (4 Bft)
03/02/2016 15:00 17,6 C 32 % 1010,9 hPa 0,0 l/m 12,4 km/h (3 Bft) O-SO 1,00 h 0,356 mm 294 W/m 0,6 C 17,6 C 23,8 km/h (4 Bft)
03/02/2016 16:00 16,4 C 32 % 1011,7 hPa 0,0 l/m 8,8 km/h (2 Bft) O-NO 1,00 h 0,279 mm 154 W/m -0,5 C 16,4 C 18,9 km/h (3 Bft)
03/02/2016 17:00 14,2 C 27 % 1012,4 hPa 0,0 l/m 9,9 km/h (2 Bft) O-NO 0,20 h 0,178 mm 24 W/m -4,5 C 14,2 C 19,8 km/h (4 Bft)
03/02/2016 18:00 12,8 C 25 % 1011,7 hPa 0,0 l/m 17,4 km/h (3 Bft) O-NO 0,00 h 0,102 mm 0 W/m -6,6 C 12,8 C 31,5 km/h (5 Bft)
03/02/2016 19:00 12,3 C 26 % 1011,7 hPa 0,0 l/m 19,0 km/h (3 Bft) NO 0,00 h 0,152 mm 0 W/m -6,6 C 12,3 C 34,4 km/h (5 Bft)
03/02/2016 20:00 11,5 C 29 % 1012,5 hPa 0,0 l/m 19,1 km/h (3 Bft) NO 0,00 h 0,178 mm 0 W/m -6,1 C 11,5 C 35,8 km/h (5 Bft)
03/02/2016 21:00 10,9 C 28 % 1015,0 hPa 0,0 l/m 8,5 km/h (2 Bft) N 0,00 h 0,152 mm 0 W/m -6,7 C 10,9 C 17,5 km/h (3 Bft)
03/02/2016 22:00 10,3 C 26 % 1016,6 hPa 0,0 l/m 5,3 km/h (1 Bft) S-SE 0,00 h 0,102 mm 0 W/m -8,4 C 10,3 C 10,0 km/h (2 Bft)
03/02/2016 23:00 10,5 C 20 % 1018,1 hPa 0,0 l/m 7,0 km/h (2 Bft) S 0,00 h 0,076 mm 0 W/m -11,2 C 10,5 C 12,7 km/h (3 Bft)
04/02/2016 00:00 9,7 C 21 % 1019,7 hPa 0,0 l/m 3,9 km/h (1 Bft) SO 0,00 h 0,102 mm 0 W/m -11,3 C 9,4 C 7,6 km/h (2 Bft)
04/02/2016 01:00 9,2 C 23 % 1020,9 hPa 0,0 l/m 3,0 km/h (1 Bft) O-SO 0,00 h 0,076 mm 0 W/m -10,7 C 9,0 C 6,8 km/h (2 Bft)
04/02/2016 02:00 7,8 C 29 % 1021,5 hPa 0,0 l/m 5,8 km/h (2 Bft) O-SO 0,00 h 0,076 mm 0 W/m -9,2 C 7,0 C 11,1 km/h (2 Bft)
04/02/2016 03:00 6,8 C 36 % 1022,0 hPa 0,0 l/m 8,3 km/h (2 Bft) O-SO 0,00 h 0,076 mm 0 W/m -7,2 C 5,4 C 16,6 km/h (3 Bft)
04/02/2016 04:00 6,1 C 39 % 1022,7 hPa 0,0 l/m 2,5 km/h (1 Bft) O-NO 0,00 h 0,076 mm 0 W/m -6,9 C 6,0 C 7,0 km/h (2 Bft)
04/02/2016 05:00 5,4 C 38 % 1023,6 hPa 0,0 l/m 0,2 km/h (0 Bft) S 0,00 h 0,051 mm 0 W/m -7,9 C 5,4 C 0,8 km/h (0 Bft)
04/02/2016 06:00 5,6 C 34 % 1023,8 hPa 0,0 l/m 0,9 km/h (0 Bft) N-NO 0,00 h 0,025 mm 0 W/m -9,0 C 5,6 C 2,5 km/h (1 Bft)
04/02/2016 07:00 5,9 C 31 % 1024,4 hPa 0,0 l/m 0,8 km/h (0 Bft) NO 0,07 h 0,051 mm 12 W/m -9,9 C 5,9 C 1,7 km/h (1 Bft)
04/02/2016 08:00 7,2 C 32 % 1025,1 hPa 0,0 l/m 0,1 km/h (0 Bft) NO 1,00 h 0,025 mm 95 W/m -8,5 C 7,2 C 0,3 km/h (0 Bft)
04/02/2016 09:00 10,0 C 32 % 1025,6 hPa 0,0 l/m 0,3 km/h (0 Bft) NO 1,00 h 0,051 mm 249 W/m -5,9 C 10,0 C 0,9 km/h (0 Bft)
04/02/2016 10:00 12,3 C 30 % 1025,6 hPa 0,0 l/m 1,2 km/h (1 Bft) S 1,00 h 0,127 mm 382 W/m -4,9 C 12,3 C 3,1 km/h (1 Bft)
04/02/2016 11:00 13,5 C 28 % 1025,9 hPa 0,0 l/m 4,5 km/h (1 Bft) S 1,00 h 0,203 mm 471 W/m -4,6 C 13,5 C 7,5 km/h (2 Bft)
04/02/2016 12:00 15,1 C 25 % 1025,0 hPa 0,0 l/m 1,8 km/h (1 Bft) S-SE 1,00 h 0,279 mm 509 W/m -5,0 C 15,1 C 4,0 km/h (1 Bft)
04/02/2016 13:00 15,8 C 24 % 1024,2 hPa 0,0 l/m 3,0 km/h (1 Bft) S 1,00 h 0,279 mm 488 W/m -4,8 C 15,8 C 6,0 km/h (2 Bft)
04/02/2016 14:00 15,5 C 28 % 1023,1 hPa 0,0 l/m 6,3 km/h (2 Bft) S-SE 1,00 h 0,305 mm 417 W/m -2,8 C 15,5 C 10,1 km/h (2 Bft)
04/02/2016 15:00 14,9 C 34 % 1022,4 hPa 0,0 l/m 5,9 km/h (2 Bft) S-SE 1,00 h 0,279 mm 301 W/m -0,7 C 14,9 C 9,7 km/h (2 Bft)
04/02/2016 16:00 14,9 C 34 % 1022,3 hPa 0,0 l/m 1,5 km/h (1 Bft) SE 1,00 h 0,203 mm 155 W/m -0,7 C 14,9 C 3,0 km/h (1 Bft)
04/02/2016 17:00 14,3 C 35 % 1021,9 hPa 0,0 l/m 0,0 km/h (0 Bft) N 0,18 h 0,102 mm 24 W/m -0,9 C 14,3 C 0,1 km/h (0 Bft)
04/02/2016 18:00 10,9 C 48 % 1022,2 hPa 0,0 l/m 0,0 km/h (0 Bft) N 0,00 h 0,025 mm 0 W/m 0,4 C 10,9 C 0,1 km/h (0 Bft)
04/02/2016 19:00 9,0 C 53 % 1022,2 hPa 0,0 l/m 0,0 km/h (0 Bft) N 0,00 h 0,000 mm 0 W/m -0,1 C 9,0 C 0,4 km/h (0 Bft)
04/02/2016 20:00 9,2 C 47 % 1021,9 hPa 0,0 l/m 0,0 km/h (0 Bft) N 0,00 h 0,025 mm 0 W/m -1,6 C 9,2 C 0,3 km/h (0 Bft)
04/02/2016 21:00 9,5 C 44 % 1021,7 hPa 0,0 l/m 0,0 km/h (0 Bft) NO 0,00 h 0,025 mm 0 W/m -2,1 C 9,5 C 0,6 km/h (0 Bft)
04/02/2016 22:00 9,7 C 42 % 1021,5 hPa 0,0 l/m 0,0 km/h (0 Bft) NO 0,00 h 0,051 mm 0 W/m -2,6 C 9,7 C 0,9 km/h (0 Bft)
04/02/2016 23:00 9,6 C 42 % 1021,4 hPa 0,0 l/m 0,0 km/h (0 Bft) N 0,00 h 0,051 mm 0 W/m -2,8 C 9,6 C 0,7 km/h (0 Bft)
05/02/2016 00:00 9,5 C 42 % 1021,3 hPa 0,0 l/m 0,0 km/h (0 Bft) NO 0,00 h 0,051 mm 0 W/m -2,8 C 9,5 C 0,5 km/h (0 Bft)
05/02/2016 01:00 8,9 C 44 % 1020,8 hPa 0,0 l/m 0,5 km/h (0 Bft) O-NO 0,00 h 0,051 mm 0 W/m -2,8 C 8,9 C 1,4 km/h (1 Bft)
05/02/2016 02:00 8,1 C 47 % 1021,0 hPa 0,0 l/m 1,2 km/h (1 Bft) O 0,00 h 0,051 mm 0 W/m -2,5 C 8,1 C 2,7 km/h (1 Bft)
05/02/2016 03:00 7,6 C 51 % 1021,4 hPa 0,0 l/m 0,0 km/h (0 Bft) N 0,00 h 0,025 mm 0 W/m -2,0 C 7,6 C 0,3 km/h (0 Bft)
05/02/2016 04:00 7,8 C 59 % 1021,2 hPa 0,0 l/m 0,0 km/h (0 Bft) N 0,00 h 0,025 mm 0 W/m 0,2 C 7,8 C 0,5 km/h (0 Bft)
05/02/2016 05:00 8,1 C 66 % 1021,3 hPa 0,0 l/m 0,2 km/h (0 Bft) O 0,00 h 0,025 mm 0 W/m 2,1 C 8,1 C 1,3 km/h (1 Bft)
05/02/2016 06:00 7,8 C 67 % 1021,8 hPa 0,0 l/m 0,1 km/h (0 Bft) O 0,00 h 0,025 mm 0 W/m 2,0 C 7,8 C 1,3 km/h (1 Bft)
05/02/2016 07:00 7,2 C 68 % 1022,4 hPa 0,0 l/m 0,1 km/h (0 Bft) O 0,08 h 0,025 mm 10 W/m 1,8 C 7,2 C 0,7 km/h (0 Bft)
05/02/2016 08:00 7,9 C 69 % 1023,4 hPa 0,0 l/m 0,0 km/h (0 Bft) O 1,00 h 0,000 mm 92 W/m 2,6 C 7,9 C 0,5 km/h (0 Bft)
05/02/2016 09:00 10,9 C 65 % 1024,1 hPa 0,0 l/m 0,1 km/h (0 Bft) O 1,00 h 0,051 mm 240 W/m 4,6 C 10,9 C 0,7 km/h (0 Bft)
05/02/2016 10:00 13,1 C 62 % 1024,5 hPa 0,0 l/m 1,0 km/h (0 Bft) E-SE 1,00 h 0,127 mm 370 W/m 5,9 C 13,1 C 3,2 km/h (1 Bft)
05/02/2016 11:00 14,7 C 57 % 1024,8 hPa 0,0 l/m 2,6 km/h (1 Bft) E-SE 1,00 h 0,203 mm 459 W/m 6,3 C 14,7 C 5,5 km/h (1 Bft)
05/02/2016 12:00 15,6 C 61 % 1024,9 hPa 0,0 l/m 2,1 km/h (1 Bft) E 1,00 h 0,254 mm 496 W/m 8,2 C 15,6 C 5,1 km/h (1 Bft)
05/02/2016 13:00 15,7 C 64 % 1024,7 hPa 0,0 l/m 2,2 km/h (1 Bft) E-SE 1,00 h 0,279 mm 478 W/m 9,0 C 15,7 C 5,5 km/h (1 Bft)
05/02/2016 14:00 15,6 C 67 % 1024,4 hPa 0,0 l/m 2,5 km/h (1 Bft) S 1,00 h 0,254 mm 409 W/m 9,4 C 15,6 C 5,3 km/h (1 Bft)
05/02/2016 15:00 15,2 C 70 % 1024,5 hPa 0,0 l/m 1,4 km/h (1 Bft) S 1,00 h 0,229 mm 290 W/m 9,8 C 15,2 C 4,1 km/h (1 Bft)
05/02/2016 16:00 14,2 C 73 % 1024,9 hPa 0,0 l/m 0,5 km/h (0 Bft) S 1,00 h 0,152 mm 156 W/m 9,5 C 14,2 C 2,3 km/h (1 Bft)
05/02/2016 17:00 12,5 C 78 % 1025,3 hPa 0,0 l/m 0,1 km/h (0 Bft) E-SE 0,17 h 0,076 mm 26 W/m 8,8 C 12,5 C 0,6 km/h (0 Bft)
05/02/2016 18:00 10,6 C 85 % 1026,5 hPa 0,0 l/m 0,0 km/h (0 Bft) N 0,00 h 0,025 mm 0 W/m 8,1 C 10,6 C 0,0 km/h (0 Bft)
05/02/2016 19:00 9,2 C 88 % 1027,1 hPa 0,0 l/m 0,0 km/h (0 Bft) N 0,00 h 0,000 mm 0 W/m 7,3 C 9,2 C 0,0 km/h (0 Bft)
05/02/2016 20:00 8,6 C 91 % 1027,6 hPa 0,0 l/m 0,0 km/h (0 Bft) N 0,00 h 0,000 mm 0 W/m 7,2 C 8,6 C 0,0 km/h (0 Bft)
05/02/2016 21:00 8,0 C 92 % 1027,6 hPa 0,0 l/m 0,0 km/h (0 Bft) N 0,00 h 0,000 mm 0 W/m 6,8 C 8,0 C 0,1 km/h (0 Bft)
05/02/2016 22:00 7,7 C 91 % 1027,7 hPa 0,0 l/m 0,0 km/h (0 Bft) N 0,00 h 0,000 mm 0 W/m 6,3 C 7,7 C 0,1 km/h (0 Bft)
05/02/2016 23:00 7,4 C 86 % 1027,5 hPa 0,0 l/m 0,4 km/h (0 Bft) S-SO 0,00 h 0,000 mm 0 W/m 5,2 C 7,4 C 1,6 km/h (1 Bft)
06/02/2016 00:00 6,8 C 87 % 1027,7 hPa 0,0 l/m 0,4 km/h (0 Bft) S-SO 0,00 h 0,000 mm 0 W/m 4,8 C 6,8 C 0,9 km/h (0 Bft)
06/02/2016 01:00 6,9 C 84 % 1027,7 hPa 0,0 l/m 0,5 km/h (0 Bft) N-NO 0,00 h 0,000 mm 0 W/m 4,4 C 6,9 C 2,5 km/h (1 Bft)
06/02/2016 02:00 7,6 C 79 % 1027,7 hPa 0,0 l/m 0,1 km/h (0 Bft) N 0,00 h 0,000 mm 0 W/m 4,2 C 7,6 C 1,0 km/h (0 Bft)
06/02/2016 03:00 7,5 C 83 % 1027,6 hPa 0,0 l/m 0,0 km/h (0 Bft) N 0,00 h 0,025 mm 0 W/m 4,7 C 7,5 C 0,5 km/h (0 Bft)
06/02/2016 04:00 7,8 C 84 % 1027,4 hPa 0,0 l/m 0,0 km/h (0 Bft) N 0,00 h 0,000 mm 0 W/m 5,3 C 7,8 C 0,2 km/h (0 Bft)
06/02/2016 05:00 8,7 C 83 % 1027,5 hPa 0,0 l/m 0,0 km/h (0 Bft) N 0,00 h 0,000 mm 0 W/m 6,0 C 8,7 C 0,1 km/h (0 Bft)
06/02/2016 06:00 8,9 C 83 % 1027,6 hPa 0,0 l/m 0,0 km/h (0 Bft) N 0,00 h 0,000 mm 0 W/m 6,1 C 8,9 C 0,2 km/h (0 Bft)
06/02/2016 07:00 9,1 C 84 % 1027,9 hPa 0,0 l/m 0,0 km/h (0 Bft) N 0,00 h 0,000 mm 0 W/m 6,5 C 9,1 C 0,1 km/h (0 Bft)
06/02/2016 08:00 9,1 C 84 % 1028,3 hPa 0,0 l/m 0,1 km/h (0 Bft) NE 0,00 h 0,000 mm 16 W/m 6,6 C 9,1 C 1,4 km/h (1 Bft)
06/02/2016 09:00 9,5 C 83 % 1028,4 hPa 0,0 l/m 0,1 km/h (0 Bft) NE 0,00 h 0,000 mm 46 W/m 6,8 C 9,5 C 1,4 km/h (1 Bft)
06/02/2016 10:00 10,1 C 82 % 1028,3 hPa 0,0 l/m 0,3 km/h (0 Bft) NE 0,00 h 0,025 mm 73 W/m 7,1 C 10,1 C 1,9 km/h (1 Bft)
06/02/2016 11:00 10,9 C 81 % 1028,2 hPa 0,0 l/m 0,2 km/h (0 Bft) N-NE 0,00 h 0,025 mm 97 W/m 7,7 C 10,9 C 1,4 km/h (1 Bft)
06/02/2016 12:00 11,4 C 82 % 1027,4 hPa 0,0 l/m 0,4 km/h (0 Bft) NE 0,00 h 0,051 mm 76 W/m 8,4 C 11,4 C 2,2 km/h (1 Bft)
06/02/2016 13:00 11,5 C 85 % 1026,5 hPa 0,0 l/m 0,7 km/h (0 Bft) NE 0,00 h 0,051 mm 68 W/m 9,0 C 11,5 C 3,2 km/h (1 Bft)
06/02/2016 14:00 11,3 C 87 % 1025,4 hPa 0,0 l/m 1,1 km/h (1 Bft) NE 0,00 h 0,025 mm 59 W/m 9,3 C 11,3 C 4,1 km/h (1 Bft)
06/02/2016 15:00 11,0 C 89 % 1024,6 hPa 0,6 l/m 0,6 km/h (0 Bft) NE 0,00 h 0,025 mm 21 W/m 9,3 C 11,0 C 2,9 km/h (1 Bft)
06/02/2016 16:00 10,5 C 94 % 1024,1 hPa 0,6 l/m 0,1 km/h (0 Bft) E 0,00 h 0,000 mm 25 W/m 9,5 C 10,5 C 1,5 km/h (1 Bft)
06/02/2016 17:00 10,2 C 95 % 1023,8 hPa 0,6 l/m 0,2 km/h (0 Bft) NE 0,00 h 0,025 mm 11 W/m 9,5 C 10,2 C 2,0 km/h (1 Bft)
06/02/2016 18:00 10,1 C 96 % 1023,4 hPa 0,0 l/m 0,4 km/h (0 Bft) N-NE 0,00 h 0,000 mm 0 W/m 9,5 C 10,1 C 2,5 km/h (1 Bft)
06/02/2016 19:00 10,0 C 97 % 1023,1 hPa 0,4 l/m 0,4 km/h (0 Bft) NE 0,00 h 0,000 mm 0 W/m 9,5 C 10,0 C 2,6 km/h (1 Bft)
06/02/2016 20:00 10,0 C 97 % 1022,7 hPa 0,6 l/m 0,2 km/h (0 Bft) NE 0,00 h 0,000 mm 0 W/m 9,5 C 10,0 C 1,5 km/h (1 Bft)
06/02/2016 21:00 9,8 C 97 % 1021,8 hPa 0,2 l/m 0,6 km/h (0 Bft) N-NE 0,00 h 0,000 mm 0 W/m 9,3 C 9,8 C 1,9 km/h (1 Bft)
06/02/2016 22:00 9,7 C 97 % 1021,3 hPa 0,0 l/m 0,4 km/h (0 Bft) S-SO 0,00 h 0,000 mm 0 W/m 9,2 C 9,7 C 1,4 km/h (1 Bft)
06/02/2016 23:00 9,6 C 97 % 1020,7 hPa 0,0 l/m 0,1 km/h (0 Bft) NE 0,00 h 0,000 mm 0 W/m 9,1 C 9,6 C 1,0 km/h (0 Bft)
07/02/2016 00:00 9,5 C 97 % 1020,1 hPa 0,0 l/m 0,0 km/h (0 Bft) N 0,00 h 0,000 mm 0 W/m 9,0 C 9,5 C 0,2 km/h (0 Bft)
07/02/2016 01:00 9,3 C 97 % 1019,0 hPa 0,0 l/m 0,0 km/h (0 Bft) N-NE 0,00 h 0,000 mm 0 W/m 8,9 C 9,3 C 0,5 km/h (0 Bft)
07/02/2016 02:00 9,1 C 97 % 1017,7 hPa 0,4 l/m 0,0 km/h (0 Bft) N-NE 0,00 h 0,000 mm 0 W/m 8,7 C 9,1 C 0,4 km/h (0 Bft)
07/02/2016 03:00 8,9 C 97 % 1016,4 hPa 0,6 l/m 0,4 km/h (0 Bft) NE 0,00 h 0,000 mm 0 W/m 8,5 C 8,9 C 1,6 km/h (1 Bft)
07/02/2016 04:00 8,9 C 97 % 1015,6 hPa 0,8 l/m 0,8 km/h (0 Bft) NE 0,00 h 0,000 mm 0 W/m 8,4 C 8,8 C 2,8 km/h (1 Bft)
07/02/2016 05:00 9,1 C 97 % 1014,6 hPa 2,0 l/m 1,0 km/h (0 Bft) N 0,00 h 0,000 mm 0 W/m 8,6 C 9,0 C 2,4 km/h (1 Bft)
07/02/2016 06:00 9,1 C 97 % 1013,0 hPa 5,8 l/m 1,0 km/h (0 Bft) NE 0,00 h 0,000 mm 0 W/m 8,7 C 9,1 C 3,5 km/h (1 Bft)
07/02/2016 07:00 9,2 C 97 % 1012,0 hPa 4,0 l/m 0,7 km/h (0 Bft) N 0,00 h 0,000 mm 0 W/m 8,8 C 9,2 C 2,8 km/h (1 Bft)
07/02/2016 08:00 9,4 C 98 % 1011,5 hPa 1,8 l/m 0,8 km/h (0 Bft) E-SE 0,00 h 0,000 mm 5 W/m 9,1 C 9,4 C 2,8 km/h (1 Bft)
07/02/2016 09:00 9,7 C 98 % 1010,7 hPa 3,6 l/m 2,5 km/h (1 Bft) E-SE 0,00 h 0,000 mm 7 W/m 9,4 C 9,6 C 6,9 km/h (2 Bft)
07/02/2016 10:00 10,0 C 98 % 1009,8 hPa 3,8 l/m 4,4 km/h (1 Bft) E-SE 0,00 h 0,000 mm 15 W/m 9,7 C 9,9 C 11,8 km/h (2 Bft)
07/02/2016 11:00 10,0 C 98 % 1008,6 hPa 7,6 l/m 5,6 km/h (1 Bft) NE 0,00 h 0,000 mm 13 W/m 9,7 C 9,6 C 14,8 km/h (3 Bft)
07/02/2016 12:00 9,8 C 98 % 1007,3 hPa 6,4 l/m 4,3 km/h (1 Bft) NE 0,00 h 0,000 mm 14 W/m 9,5 C 9,5 C 11,6 km/h (2 Bft)
07/02/2016 13:00 9,8 C 98 % 1006,6 hPa 10,2 l/m 1,8 km/h (1 Bft) E-SE 0,00 h 0,000 mm 11 W/m 9,5 C 9,7 C 6,0 km/h (2 Bft)
07/02/2016 14:00 9,8 C 99 % 1006,1 hPa 8,4 l/m 0,6 km/h (0 Bft) N-NE 0,00 h 0,000 mm 10 W/m 9,6 C 9,8 C 3,0 km/h (1 Bft)
07/02/2016 15:00 9,9 C 99 % 1006,3 hPa 8,2 l/m 0,2 km/h (0 Bft) NO 0,00 h 0,000 mm 13 W/m 9,7 C 9,9 C 1,7 km/h (1 Bft)
07/02/2016 16:00 9,8 C 99 % 1006,3 hPa 2,0 l/m 0,6 km/h (0 Bft) NE 0,00 h 0,000 mm 10 W/m 9,7 C 9,8 C 2,4 km/h (1 Bft)
07/02/2016 17:00 9,3 C 98 % 1006,7 hPa 0,0 l/m 0,0 km/h (0 Bft) NE 0,00 h 0,000 mm 10 W/m 9,1 C 9,3 C 1,1 km/h (0 Bft)
07/02/2016 18:00 8,6 C 98 % 1007,5 hPa 0,0 l/m 0,0 km/h (0 Bft) E-NE 0,00 h 0,000 mm 0 W/m 8,3 C 8,6 C 0,6 km/h (0 Bft)
07/02/2016 19:00 8,4 C 98 % 1008,7 hPa 0,0 l/m 0,8 km/h (0 Bft) SO 0,00 h 0,000 mm 0 W/m 8,1 C 8,4 C 1,8 km/h (1 Bft)
07/02/2016 20:00 8,8 C 99 % 1010,0 hPa 0,0 l/m 0,1 km/h (0 Bft) SO 0,00 h 0,000 mm 0 W/m 8,6 C 8,8 C 1,0 km/h (0 Bft)
07/02/2016 21:00 9,5 C 99 % 1010,5 hPa 0,0 l/m 0,2 km/h (0 Bft) O 0,00 h 0,000 mm 0 W/m 9,3 C 9,5 C 1,3 km/h (1 Bft)
07/02/2016 22:00 9,7 C 99 % 1011,1 hPa 0,0 l/m 3,3 km/h (1 Bft) O-SO 0,00 h 0,000 mm 0 W/m 9,5 C 9,5 C 7,1 km/h (2 Bft)
07/02/2016 23:00 9,5 C 99 % 1011,5 hPa 0,0 l/m 0,5 km/h (0 Bft) SO 0,00 h 0,000 mm 0 W/m 9,3 C 9,5 C 1,4 km/h (1 Bft)
Min-Date _ 04/02/16 03/02/16 07/02/16 - 01/02/16 - - - - 03/02/16 04/02/16 01/02/16
_ Min-Heure 05:38 23:35 14:30 - 00:01 - - - - 23:35 03:55 00:01
Minimum _ 5,0 C 18 % 1005,8 hPa - 0,0 km/h (0 Bft) - - - - -12,6 C 3,5 C 0,0 km/h (0 Bft)
Max-Date _ 03/02/16 07/02/16 06/02/16 07/02/16 03/02/16 - 01/02/16 03/02/16 01/02/16 01/02/16 03/02/16 03/02/16
_ Max-Heure 14:11 11:47 08:30 13:01 18:47 - 08:00 14:00 13:37 12:53 14:11 20:42
Maximum _ 19,0 C 99 % 1028,5 hPa 10,2 l/m 35,4 km/h
O-NO (5 Bft)
- 0,02 h 0,356 mm 555 W/m 13,2 C 19,0 C 64,4 km/h
NO (8 Bft)
Moyenne _ 10,9 C 76 % 1020,9 hPa #69,0 l/m 1,5 km/h (1 Bft) S #29:15 h #8,830 mm 162 W/m 5,8 C 10,8 C 3,6 km/h (1 Bft)
Roquefort les pins